LFAC METAR and TAF | Updated Today

LFAC METAR

Calais-Dunkerque Airport

Observation time: 19 min. ago

LFAC 291200Z AUTO 02014KT 9999 FEW019 BKN062 BKN072 14/08 Q1018

Need help? Read our tutorial on how to read METARs or read the parsed version below.

Calais-Dunkerque Airport (LFAC) METAR

  • Weather conditions on Sun, 29 May 2022 12:00:00 +0000 (19 min. ago):
  • Present conditions: Dry
  • Clouds: A few at 579 meters; broken sky at 1890 meters; broken sky at 2195 meters
  • Visibility: Greater than 10 km
  • Wind: 20 degrees at 14 knots
  • Temperature: 14 celsius
  • Dew point: 8 celsius
  • Pressure: 1018 millibars
  • Remarks: None


Useful to know...

  • Codes: LFAC/CQF
  • Airport elevation: 12ft
  • Municipality: Calais/Dunkerque
  • Country: France
  • Continent: Europe